Lineville, Iowa
Current Conditions -  °F | °C
As of 5:53 AM on Friday 31 Oct 2014 (Local Time) from KLWD Reporting Station
Light Snow Light Snow  
Wind Chill: 20°   Ceiling: Unl
Heat Index: 32°   Visibility: 9mi
Dew Point: 21°   Wind: 20mph
Humidity: 64%   Direction: 360°N
Pressure: 30.38"   Gusts: 28mph
Location:  40.58°N, 93.52°W
Report Text: KLWD 311053Z AUTO 36017G24KT 9SM -SN CLR 00/M06 A3038 RMK AO2 PK WND 35027/1022 SNB0954 SLP293 P0000 T00001061
Loading
Personal Weather Stations






























Interactive Weather Map
Tropical Storm Tracking
New forecast layout! Learn more

10-Day Weather Forecast

Advertisements
Track Severe Weather on mobile